createdAt,value
2019-02-24T00:00:47.516Z,102617.54
2019-02-24T00:03:16.471Z,102616.08
2019-02-24T00:05:45.345Z,102610.28
2019-02-24T00:08:14.188Z,102617.52
2019-02-24T00:10:43.067Z,102612.55
2019-02-24T00:13:12.024Z,102611.09
2019-02-24T00:15:40.925Z,102611.53
2019-02-24T00:18:09.885Z,102608.75
2019-02-24T00:20:38.804Z,102610.01
2019-02-24T00:23:07.631Z,102605.86
2019-02-24T00:25:36.532Z,102606.83
2019-02-24T00:28:07.347Z,102600.50
2019-02-24T00:30:36.112Z,102594.44
2019-02-24T00:33:04.969Z,102588.11
2019-02-24T00:35:33.837Z,102589.92
2019-02-24T00:38:02.714Z,102584.09
2019-02-24T00:40:31.715Z,102582.97
2019-02-24T00:43:00.589Z,102582.87
2019-02-24T00:45:29.399Z,102572.53
2019-02-24T00:47:58.315Z,102573.59
2019-02-24T00:50:27.102Z,102573.59
2019-02-24T00:52:55.885Z,102565.97
2019-02-24T00:55:24.734Z,102570.05
2019-02-24T00:57:53.685Z,102567.86
2019-02-24T01:00:22.636Z,102567.62
2019-02-24T01:02:51.524Z,102565.44
2019-02-24T01:05:20.408Z,102563.55
2019-02-24T01:07:49.388Z,102566.80
2019-02-24T01:10:18.209Z,102560.77
2019-02-24T01:12:47.091Z,102566.44
2019-02-24T01:15:15.890Z,102563.09
2019-02-24T01:17:44.742Z,102557.06
2019-02-24T01:20:13.535Z,102552.05
2019-02-24T01:22:42.416Z,102548.98
2019-02-24T01:25:11.258Z,102559.74
2019-02-24T01:27:40.074Z,102562.39
2019-02-24T01:30:09.855Z,102561.49
2019-02-24T01:32:38.639Z,102555.96
2019-02-24T01:35:07.871Z,102558.31
2019-02-24T01:37:36.685Z,102557.38
2019-02-24T01:40:05.747Z,102558.14
2019-02-24T01:42:34.744Z,102557.21
2019-02-24T01:45:03.635Z,102559.03
2019-02-24T01:47:32.445Z,102552.67
2019-02-24T01:50:01.248Z,102547.16
2019-02-24T01:52:30.137Z,102544.05
2019-02-24T01:54:59.049Z,102539.88
2019-02-24T01:57:27.929Z,102541.98
2019-02-24T01:59:56.727Z,102543.77
2019-02-24T02:02:25.562Z,102545.36
2019-02-24T02:04:54.461Z,102539.03
2019-02-24T02:07:23.250Z,102547.90
2019-02-24T02:09:52.083Z,102545.64
2019-02-24T02:12:21.002Z,102546.40
2019-02-24T02:14:49.902Z,102537.63
2019-02-24T02:17:18.718Z,102540.04
2019-02-24T02:19:47.590Z,102538.08
2019-02-24T02:22:16.477Z,102532.66
2019-02-24T02:24:45.320Z,102535.36
2019-02-24T02:27:14.139Z,102539.20
2019-02-24T02:29:43.012Z,102533.55
2019-02-24T02:32:11.959Z,102539.51
2019-02-24T02:34:40.871Z,102529.78
2019-02-24T02:37:09.819Z,102527.59
2019-02-24T02:39:38.771Z,102521.11
2019-02-24T02:42:07.618Z,102525.52
2019-02-24T02:44:36.515Z,102525.71
2019-02-24T02:47:05.341Z,102525.11
2019-02-24T02:49:34.206Z,102527.52
2019-02-24T02:52:03.009Z,102530.77
2019-02-24T02:54:31.836Z,102529.83
2019-02-24T02:57:00.695Z,102522.45
2019-02-24T02:59:29.636Z,102521.84
2019-02-24T03:01:58.447Z,102524.16
2019-02-24T03:04:27.230Z,102522.20
2019-02-24T03:07:13.749Z,102532.95
2019-02-24T03:09:42.582Z,102522.55
2019-02-24T03:12:11.339Z,102524.33
2019-02-24T03:14:40.213Z,102521.53
2019-02-24T03:17:09.120Z,102524.17
2019-02-24T03:19:37.916Z,102518.94
2019-02-24T03:22:06.424Z,102522.11
2019-02-24T03:24:35.378Z,102517.44
2019-02-24T03:27:04.224Z,102509.95
2019-02-24T03:29:32.996Z,102519.44
2019-02-24T03:32:01.883Z,102509.53
2019-02-24T03:34:30.701Z,102506.22
2019-02-24T03:36:59.592Z,102505.92
2019-02-24T03:39:28.474Z,102510.74
2019-02-24T03:41:57.333Z,102511.77
2019-02-24T03:44:26.349Z,102512.29
2019-02-24T03:46:55.242Z,102508.55
2019-02-24T03:49:24.191Z,102502.27
2019-02-24T03:51:52.955Z,102505.31
2019-02-24T03:54:21.792Z,102505.62
2019-02-24T03:56:50.643Z,102495.59
2019-02-24T03:59:19.537Z,102501.85
2019-02-24T04:01:48.376Z,102497.55
2019-02-24T04:04:17.168Z,102502.45
2019-02-24T04:06:46.069Z,102510.89
2019-02-24T04:09:14.962Z,102516.31
2019-02-24T04:11:43.784Z,102514.96
2019-02-24T04:14:12.540Z,102519.03
2019-02-24T04:16:41.316Z,102520.09
2019-02-24T04:19:10.208Z,102524.91
2019-02-24T04:21:39.060Z,102521.89
2019-02-24T04:24:07.840Z,102519.41
2019-02-24T04:26:36.740Z,102516.58
2019-02-24T04:29:05.548Z,102520.05
2019-02-24T04:31:34.348Z,102518.39
2019-02-24T04:34:03.200Z,102514.21
2019-02-24T04:36:32.085Z,102512.45
2019-02-24T04:39:00.835Z,102516.09
2019-02-24T04:41:29.648Z,102521.22
2019-02-24T04:43:58.497Z,102523.85
2019-02-24T04:46:27.315Z,102521.56
2019-02-24T04:48:56.176Z,102521.48
2019-02-24T04:51:25.005Z,102512.70
2019-02-24T04:53:53.900Z,102517.22
2019-02-24T04:56:22.777Z,102502.01
2019-02-24T04:58:51.581Z,102507.66
2019-02-24T05:01:20.429Z,102504.30
2019-02-24T05:03:49.308Z,102508.89
2019-02-24T05:06:18.068Z,102509.42
2019-02-24T05:08:49.868Z,102511.61
2019-02-24T05:11:18.662Z,102507.84
2019-02-24T05:13:47.565Z,102511.72
2019-02-24T05:16:16.439Z,102512.55
2019-02-24T05:18:46.834Z,102518.58
2019-02-24T05:21:15.663Z,102521.89
2019-02-24T05:23:44.530Z,102520.31
2019-02-24T05:26:13.374Z,102515.23
2019-02-24T05:28:42.212Z,102517.41
2019-02-24T05:31:12.048Z,102515.53
2019-02-24T05:33:40.820Z,102523.97
2019-02-24T05:36:09.699Z,102528.03
2019-02-24T05:38:38.562Z,102520.12
2019-02-24T05:41:07.414Z,102523.14
2019-02-24T05:43:36.198Z,102521.37
2019-02-24T05:46:05.125Z,102528.67
2019-02-24T05:48:34.004Z,102529.42
2019-02-24T05:51:02.806Z,102535.06
2019-02-24T05:53:31.541Z,102540.90
2019-02-24T05:56:00.396Z,102543.53
2019-02-24T05:58:29.206Z,102542.39
2019-02-24T06:00:57.997Z,102541.45
2019-02-24T06:03:26.959Z,102545.96
2019-02-24T06:05:55.765Z,102541.78
2019-02-24T06:08:24.631Z,102537.94
2019-02-24T06:10:53.389Z,102542.75
2019-02-24T06:13:22.351Z,102544.52
2019-02-24T06:15:51.107Z,102542.55
2019-02-24T06:18:19.950Z,102541.61
2019-02-24T06:20:48.799Z,102546.20
2019-02-24T06:23:17.757Z,102553.50
2019-02-24T06:25:46.630Z,102554.02
2019-02-24T06:28:15.525Z,102556.73
2019-02-24T06:30:44.289Z,102558.91
2019-02-24T06:33:13.167Z,102561.09
2019-02-24T06:35:42.026Z,102567.69
2019-02-24T06:38:10.916Z,102564.23
2019-02-24T06:40:39.808Z,102562.88
2019-02-24T06:43:08.683Z,102565.89
2019-02-24T06:45:37.582Z,102568.38
2019-02-24T06:48:06.375Z,102573.61
2019-02-24T06:50:52.753Z,102576.63
2019-02-24T06:53:21.688Z,102585.06
2019-02-24T06:55:50.472Z,102591.31
2019-02-24T06:58:19.299Z,102582.87
2019-02-24T07:00:48.198Z,102577.98
2019-02-24T07:03:16.942Z,102577.45
2019-02-24T07:05:45.788Z,102581.22
2019-02-24T07:08:14.687Z,102588.81
2019-02-24T07:10:43.634Z,102588.70
2019-02-24T07:13:12.566Z,102589.23
2019-02-24T07:15:41.325Z,102585.38
2019-02-24T07:18:10.215Z,102569.53
2019-02-24T07:20:39.053Z,102578.83
2019-02-24T07:23:07.869Z,102579.55
2019-02-24T07:25:36.798Z,102583.61
2019-02-24T07:28:05.598Z,102584.66
2019-02-24T07:30:34.496Z,102577.88
2019-02-24T07:33:03.411Z,102577.36
2019-02-24T07:35:32.301Z,102574.34
2019-02-24T07:38:01.225Z,102562.67
2019-02-24T07:40:30.203Z,102564.97
2019-02-24T07:42:59.088Z,102569.13
2019-02-24T07:45:27.973Z,102565.97
2019-02-24T07:47:56.830Z,102566.17
2019-02-24T07:50:25.596Z,102568.03
2019-02-24T07:52:54.651Z,102568.75
2019-02-24T07:55:23.584Z,102557.80
2019-02-24T07:57:52.700Z,102559.32
2019-02-24T08:00:21.695Z,102555.45
2019-02-24T08:02:50.600Z,102544.80
2019-02-24T08:05:19.582Z,102540.20
2019-02-24T08:07:48.614Z,102536.92
2019-02-24T08:10:17.487Z,102546.61
2019-02-24T08:12:46.462Z,102547.84
2019-02-24T08:15:15.386Z,102549.58
2019-02-24T08:17:44.302Z,102548.63
2019-02-24T08:20:13.309Z,102545.47
2019-02-24T08:22:42.275Z,102538.57
2019-02-24T08:25:11.145Z,102534.27
2019-02-24T08:27:40.113Z,102543.31
2019-02-24T08:30:10.177Z,102539.35
2019-02-24T08:32:39.031Z,102537.24
2019-02-24T08:35:07.963Z,102540.36
2019-02-24T08:37:36.950Z,102553.48
2019-02-24T08:40:06.086Z,102556.83
2019-02-24T08:42:34.973Z,102553.58
2019-02-24T08:45:03.945Z,102559.84
2019-02-24T08:47:32.837Z,102563.38
2019-02-24T08:50:01.841Z,102569.72
2019-02-24T08:52:30.731Z,102561.98
2019-02-24T08:54:59.586Z,102560.58
2019-02-24T08:57:28.537Z,102566.17
2019-02-24T08:59:57.492Z,102574.70
2019-02-24T09:02:26.429Z,102579.77
2019-02-24T09:04:55.258Z,102581.00
2019-02-24T09:07:24.146Z,102583.17
2019-02-24T09:09:53.180Z,102579.77
2019-02-24T09:12:22.196Z,102584.77
2019-02-24T09:14:51.180Z,102588.91
2019-02-24T09:17:20.132Z,102584.02
2019-02-24T09:19:49.100Z,102591.56
2019-02-24T09:22:18.075Z,102582.55
2019-02-24T09:24:47.154Z,102588.48
2019-02-24T09:27:16.078Z,102606.61
2019-02-24T09:29:45.065Z,102602.58
2019-02-24T09:32:14.098Z,102614.08
2019-02-24T09:34:43.023Z,102617.42
2019-02-24T09:37:11.915Z,102612.84
2019-02-24T09:39:40.886Z,102618.62
2019-02-24T09:42:09.786Z,102612.91
2019-02-24T09:44:38.952Z,102607.39
2019-02-24T09:47:07.982Z,102606.56
2019-02-24T09:49:36.953Z,102600.54
2019-02-24T09:52:05.880Z,102600.88
2019-02-24T09:54:34.849Z,102598.16
2019-02-24T09:57:03.850Z,102597.30
2019-02-24T09:59:32.805Z,102598.20
2019-02-24T10:02:01.690Z,102589.43
2019-02-24T10:04:30.591Z,102587.64
2019-02-24T10:06:59.569Z,102589.59
2019-02-24T10:09:28.642Z,102591.75
2019-02-24T10:11:57.686Z,102583.09
2019-02-24T10:14:26.606Z,102589.45
2019-02-24T10:16:55.570Z,102579.73
2019-02-24T10:19:24.540Z,102580.95
2019-02-24T10:21:53.599Z,102579.41
2019-02-24T10:24:22.564Z,102581.56
2019-02-24T10:26:51.764Z,102584.47
2019-02-24T10:29:21.232Z,102582.13
2019-02-24T10:31:50.266Z,102575.77
2019-02-24T10:34:19.357Z,102579.08
2019-02-24T10:36:48.334Z,102580.52
2019-02-24T10:39:17.537Z,102579.69
2019-02-24T10:41:46.565Z,102576.67
2019-02-24T10:44:15.469Z,102573.35
2019-02-24T10:46:44.375Z,102571.05
2019-02-24T10:49:13.195Z,102568.87
2019-02-24T10:51:42.101Z,102563.97
2019-02-24T10:54:11.045Z,102563.97
2019-02-24T10:56:40.025Z,102558.84
2019-02-24T10:59:08.916Z,102554.70
2019-02-24T11:01:37.856Z,102555.98
2019-02-24T11:04:06.845Z,102552.63
2019-02-24T11:06:35.781Z,102541.94
2019-02-24T11:09:05.383Z,102549.66
2019-02-24T11:11:34.217Z,102546.86
2019-02-24T11:14:03.133Z,102555.53
2019-02-24T11:16:32.275Z,102556.88
2019-02-24T11:19:01.323Z,102551.66
2019-02-24T11:21:30.307Z,102544.87
2019-02-24T11:23:59.230Z,102543.52
2019-02-24T11:26:28.174Z,102549.24
2019-02-24T11:28:57.132Z,102547.89
2019-02-24T11:31:26.060Z,102543.82
2019-02-24T11:33:54.964Z,102518.43
2019-02-24T11:36:23.874Z,102534.14
2019-02-24T11:38:52.858Z,102536.02
2019-02-24T11:41:21.864Z,102538.73
2019-02-24T11:43:50.678Z,102530.89
2019-02-24T11:46:19.637Z,102523.59
2019-02-24T11:48:48.645Z,102523.28
2019-02-24T11:51:17.607Z,102521.10
2019-02-24T11:53:46.711Z,102520.77
2019-02-24T11:56:15.929Z,102513.27
2019-02-24T11:58:44.873Z,102509.50
2019-02-24T12:01:14.035Z,102514.40
2019-02-24T12:03:43.059Z,102514.92
2019-02-24T12:06:12.189Z,102515.53
2019-02-24T12:08:41.240Z,102517.11
2019-02-24T12:11:10.269Z,102519.07
2019-02-24T12:13:39.258Z,102527.02
2019-02-24T12:16:08.467Z,102530.86
2019-02-24T12:18:37.538Z,102527.09
2019-02-24T12:21:06.535Z,102530.63
2019-02-24T12:23:35.502Z,102528.86
2019-02-24T12:26:04.688Z,102533.00
2019-02-24T12:28:33.646Z,102532.47
2019-02-24T12:31:02.496Z,102531.64
2019-02-24T12:33:31.413Z,102530.06
2019-02-24T12:36:00.581Z,102540.61
2019-02-24T12:38:29.547Z,102533.83
2019-02-24T12:40:58.916Z,102525.70
2019-02-24T12:43:27.854Z,102527.05
2019-02-24T12:45:56.718Z,102523.81
2019-02-24T12:48:25.858Z,102522.98
2019-02-24T12:50:54.789Z,102517.48
2019-02-24T12:53:23.808Z,102509.34
2019-02-24T12:55:52.904Z,102510.70
2019-02-24T12:58:22.029Z,102492.44
2019-02-24T13:00:50.996Z,102495.97
2019-02-24T13:03:23.980Z,102498.38
2019-02-24T13:05:51.158Z,102498.08
2019-02-24T13:08:20.176Z,102497.78
2019-02-24T13:10:49.265Z,102492.89
2019-02-24T13:13:18.232Z,102499.14
2019-02-24T13:15:47.209Z,102499.36
2019-02-24T13:18:16.265Z,102495.30
2019-02-24T13:20:45.157Z,102493.11
2019-02-24T13:23:14.159Z,102490.06
2019-02-24T13:25:43.149Z,102488.94
2019-02-24T13:28:12.120Z,102487.80
2019-02-24T13:30:41.118Z,102488.41
2019-02-24T13:33:10.069Z,102488.52
2019-02-24T13:35:40.661Z,102489.95
2019-02-24T13:38:09.696Z,102492.23
2019-02-24T13:40:38.674Z,102485.30
2019-02-24T13:43:07.589Z,102488.31
2019-02-24T13:45:36.496Z,102482.17
2019-02-24T13:48:05.438Z,102491.44
2019-02-24T13:50:34.502Z,102484.13
2019-02-24T13:53:03.464Z,102480.66
2019-02-24T13:55:32.529Z,102477.12
2019-02-24T13:58:01.412Z,102478.25
2019-02-24T14:00:30.354Z,102482.84
2019-02-24T14:02:59.176Z,102484.84
2019-02-24T14:05:28.431Z,102471.57
2019-02-24T14:07:57.509Z,102474.05
2019-02-24T14:10:26.391Z,102473.63
2019-02-24T14:12:55.431Z,102476.42
2019-02-24T14:15:24.241Z,102476.19
2019-02-24T14:17:53.316Z,102473.77
2019-02-24T14:20:22.211Z,102465.11
2019-02-24T14:22:51.023Z,102470.64
2019-02-24T14:25:19.883Z,102473.65
2019-02-24T14:27:48.813Z,102483.45
2019-02-24T14:30:17.766Z,102482.39
2019-02-24T14:32:46.906Z,102478.62
2019-02-24T14:35:16.109Z,102473.72
2019-02-24T14:37:45.082Z,102469.65
2019-02-24T14:40:14.128Z,102471.01
2019-02-24T14:42:43.151Z,102475.23
2019-02-24T14:45:14.307Z,102467.32
2019-02-24T14:47:43.245Z,102462.92
2019-02-24T14:50:12.406Z,102461.79
2019-02-24T14:52:41.373Z,102460.97
2019-02-24T14:55:10.421Z,102462.32
2019-02-24T14:57:39.328Z,102470.99
2019-02-24T15:00:10.234Z,102476.42
2019-02-24T15:02:42.404Z,102467.15
2019-02-24T15:05:10.452Z,102455.99
2019-02-24T15:07:39.836Z,102456.72
2019-02-24T15:10:10.583Z,102457.77
2019-02-24T15:12:39.557Z,102450.16
2019-02-24T15:15:10.402Z,102453.11
2019-02-24T15:17:39.310Z,102463.33
2019-02-24T15:20:09.819Z,102475.23
2019-02-24T15:22:38.825Z,102472.22
2019-02-24T15:25:09.369Z,102467.85
2019-02-24T15:27:38.363Z,102471.63
2019-02-24T15:30:11.026Z,102471.52
2019-02-24T15:32:40.031Z,102464.96
2019-02-24T15:35:09.202Z,102466.77
2019-02-24T15:37:38.093Z,102470.78
2019-02-24T15:40:07.668Z,102473.77
2019-02-24T15:42:36.649Z,102467.74
2019-02-24T15:45:06.046Z,102478.63
2019-02-24T15:47:35.082Z,102489.06
2019-02-24T15:50:04.086Z,102481.15
2019-02-24T15:52:33.318Z,102475.84
2019-02-24T15:55:02.360Z,102477.95
2019-02-24T15:57:31.532Z,102477.34
2019-02-24T16:00:00.838Z,102478.36
2019-02-24T16:02:29.694Z,102479.64
2019-02-24T16:04:59.090Z,102488.52
2019-02-24T16:07:28.287Z,102497.48
2019-02-24T16:09:57.110Z,102493.83
2019-02-24T16:12:26.211Z,102489.16
2019-02-24T16:14:55.314Z,102492.31
2019-02-24T16:17:24.361Z,102481.66
2019-02-24T16:19:53.821Z,102482.11
2019-02-24T16:22:22.703Z,102485.75
2019-02-24T16:24:51.807Z,102485.75
2019-02-24T16:27:20.961Z,102476.80
2019-02-24T16:29:49.894Z,102485.84
2019-02-24T16:32:19.134Z,102493.34
2019-02-24T16:34:48.147Z,102487.80
2019-02-24T16:37:17.061Z,102489.20
2019-02-24T16:39:46.315Z,102487.39
2019-02-24T16:42:15.505Z,102490.52
2019-02-24T16:44:44.529Z,102496.19
2019-02-24T16:47:13.628Z,102501.39
2019-02-24T16:49:42.670Z,102506.52
2019-02-24T16:52:11.879Z,102501.02
2019-02-24T16:54:41.678Z,102504.03
2019-02-24T16:57:11.560Z,102510.66
2019-02-24T16:59:40.850Z,102513.02
2019-02-24T17:02:10.160Z,102520.84
2019-02-24T17:04:39.517Z,102523.73
2019-02-24T17:07:09.098Z,102520.55
2019-02-24T17:09:38.545Z,102526.91
2019-02-24T17:12:07.854Z,102519.66
2019-02-24T17:14:37.185Z,102519.52
2019-02-24T17:17:07.310Z,102522.41
2019-02-24T17:19:36.458Z,102518.39
2019-02-24T17:22:05.579Z,102512.44
2019-02-24T17:24:34.526Z,102511.37
2019-02-24T17:27:03.656Z,102517.63
2019-02-24T17:29:33.113Z,102515.45
2019-02-24T17:32:02.274Z,102526.02
2019-02-24T17:34:32.158Z,102529.80
2019-02-24T17:37:01.598Z,102531.91
2019-02-24T17:39:31.682Z,102526.61
2019-02-24T17:42:01.026Z,102531.22
2019-02-24T17:44:31.015Z,102532.44
2019-02-24T17:47:00.225Z,102533.96
2019-02-24T17:49:30.682Z,102533.45
2019-02-24T17:52:01.071Z,102542.34
2019-02-24T17:54:31.549Z,102543.57
2019-02-24T17:57:03.673Z,102537.67
2019-02-24T17:59:40.198Z,102539.65
2019-02-24T18:02:05.602Z,102545.09
2019-02-24T18:04:35.288Z,102552.42
2019-02-24T18:07:05.856Z,102556.17
2019-02-24T18:09:36.151Z,102555.58
2019-02-24T18:12:06.557Z,102539.94
2019-02-24T18:14:37.003Z,102554.01
2019-02-24T18:17:07.157Z,102552.59
2019-02-24T18:19:37.646Z,102553.62
2019-02-24T18:22:08.280Z,102553.85
2019-02-24T18:24:38.406Z,102550.30
2019-02-24T18:27:08.868Z,102558.70
2019-02-24T18:29:40.673Z,102557.34
2019-02-24T18:32:12.766Z,102556.72
2019-02-24T18:34:45.295Z,102551.78
2019-02-24T18:37:18.441Z,102553.67
2019-02-24T18:39:51.866Z,102552.55
2019-02-24T18:42:23.998Z,102554.67
2019-02-24T18:44:55.157Z,102550.83
2019-02-24T18:47:25.615Z,102547.48
2019-02-24T18:49:57.283Z,102543.88
2019-02-24T18:52:28.344Z,102539.17
2019-02-24T18:54:59.863Z,102536.39
2019-02-24T18:57:30.707Z,102548.02
2019-02-24T19:00:00.887Z,102545.21
2019-02-24T19:02:32.692Z,102541.96
2019-02-24T19:05:03.048Z,102542.75
2019-02-24T19:07:33.907Z,102537.88
2019-02-24T19:10:07.361Z,102539.58
2019-02-24T19:12:37.600Z,102539.56
2019-02-24T19:15:09.299Z,102538.87
2019-02-24T19:17:38.997Z,102533.14
2019-02-24T19:20:10.230Z,102531.84
2019-02-24T19:22:40.416Z,102536.31
2019-02-24T19:25:11.473Z,102541.57
2019-02-24T19:27:42.282Z,102526.75
2019-02-24T19:30:14.016Z,102529.33
2019-02-24T19:32:44.791Z,102531.13
2019-02-24T19:35:15.973Z,102540.26
2019-02-24T19:37:46.698Z,102541.14
2019-02-24T19:40:20.580Z,102536.08
2019-02-24T19:42:50.839Z,102536.13
2019-02-24T19:45:20.622Z,102548.44
2019-02-24T19:47:50.909Z,102542.78
2019-02-24T19:50:21.472Z,102536.81
2019-02-24T19:52:52.133Z,102537.63
2019-02-24T19:55:22.666Z,102532.43
2019-02-24T19:57:53.139Z,102530.24
2019-02-24T20:00:23.550Z,102533.17
2019-02-24T20:02:53.439Z,102534.23
2019-02-24T20:05:22.991Z,102533.69
2019-02-24T20:07:54.767Z,102537.41
2019-02-24T20:10:24.192Z,102540.58
2019-02-24T20:12:53.733Z,102548.08
2019-02-24T20:15:24.399Z,102540.41
2019-02-24T20:17:56.823Z,102540.38
2019-02-24T20:20:26.613Z,102547.60
2019-02-24T20:22:57.260Z,102547.75
2019-02-24T20:25:26.954Z,102553.00
2019-02-24T20:27:56.272Z,102559.04
2019-02-24T20:30:27.467Z,102558.00
2019-02-24T20:32:57.001Z,102564.03
2019-02-24T20:35:26.809Z,102558.29
2019-02-24T20:37:56.226Z,102563.78
2019-02-24T20:40:26.110Z,102561.13
2019-02-24T20:42:55.767Z,102563.91
2019-02-24T20:45:25.643Z,102572.66
2019-02-24T20:47:55.485Z,102565.63
2019-02-24T20:50:24.836Z,102569.11
2019-02-24T20:52:54.114Z,102567.99
2019-02-24T20:55:23.570Z,102568.98
2019-02-24T20:57:52.956Z,102568.90
2019-02-24T21:00:25.277Z,102574.81
2019-02-24T21:02:54.807Z,102576.88
2019-02-24T21:05:24.497Z,102566.67
2019-02-24T21:07:53.521Z,102577.66
2019-02-24T21:10:22.694Z,102572.67
2019-02-24T21:12:51.892Z,102576.30
2019-02-24T21:15:21.204Z,102567.36
2019-02-24T21:17:50.665Z,102569.81
2019-02-24T21:20:22.132Z,102576.33
2019-02-24T21:22:51.565Z,102574.57
2019-02-24T21:25:20.824Z,102568.17
2019-02-24T21:27:49.867Z,102581.93
2019-02-24T21:30:19.338Z,102585.30
2019-02-24T21:32:48.558Z,102588.97
2019-02-24T21:35:17.671Z,102590.41
2019-02-24T21:37:46.618Z,102585.05
2019-02-24T21:40:15.764Z,102584.86
2019-02-24T21:42:44.786Z,102586.70
2019-02-24T21:45:15.835Z,102590.88
2019-02-24T21:47:45.320Z,102584.48
2019-02-24T21:50:15.358Z,102580.92
2019-02-24T21:52:44.337Z,102582.58
2019-02-24T21:55:13.402Z,102587.24
2019-02-24T21:57:42.368Z,102585.41
2019-02-24T22:00:14.539Z,102586.27
2019-02-24T22:02:43.563Z,102591.77
2019-02-24T22:05:12.583Z,102589.36
2019-02-24T22:07:41.568Z,102598.91
2019-02-24T22:10:11.003Z,102598.30
2019-02-24T22:12:39.881Z,102597.44
2019-02-24T22:15:11.037Z,102598.20
2019-02-24T22:17:39.990Z,102597.91
2019-02-24T22:20:09.296Z,102598.98
2019-02-24T22:22:38.213Z,102600.06
2019-02-24T22:25:07.228Z,102598.95
2019-02-24T22:27:36.056Z,102603.30
2019-02-24T22:30:05.135Z,102601.32
2019-02-24T22:32:34.118Z,102602.11
2019-02-24T22:35:02.903Z,102602.58
2019-02-24T22:37:31.844Z,102605.27
2019-02-24T22:40:00.764Z,102612.59
2019-02-24T22:42:29.646Z,102609.47
2019-02-24T22:44:58.535Z,102617.54
2019-02-24T22:47:27.362Z,102618.75
2019-02-24T22:49:56.156Z,102628.38
2019-02-24T22:52:24.996Z,102632.28
2019-02-24T22:54:53.827Z,102625.05
2019-02-24T22:57:22.657Z,102618.89
2019-02-24T22:59:51.541Z,102620.16
2019-02-24T23:02:20.839Z,102618.14
2019-02-24T23:04:49.659Z,102614.22
2019-02-24T23:07:18.407Z,102619.25
2019-02-24T23:09:47.326Z,102619.13
2019-02-24T23:12:16.291Z,102617.09
2019-02-24T23:14:45.218Z,102616.97
2019-02-24T23:17:14.125Z,102613.05
2019-02-24T23:19:42.909Z,102613.23
2019-02-24T23:22:11.821Z,102608.48
2019-02-24T23:24:40.586Z,102617.35
2019-02-24T23:27:09.428Z,102618.08
2019-02-24T23:29:38.342Z,102617.41
2019-02-24T23:32:07.191Z,102617.27
2019-02-24T23:34:36.099Z,102613.34
2019-02-24T23:37:04.912Z,102621.70
2019-02-24T23:39:33.747Z,102616.41
2019-02-24T23:42:02.492Z,102616.89
2019-02-24T23:44:31.416Z,102617.05
2019-02-24T23:47:00.185Z,102614.80
2019-02-24T23:49:29.106Z,102623.13
2019-02-24T23:51:57.918Z,102616.77
2019-02-24T23:54:26.697Z,102622.09
2019-02-24T23:56:55.417Z,102614.88
2019-02-24T23:59:24.250Z,102621.62
